Eskridge, Kansas
Current Conditions -  °F | °C
As of 3:53 AM on Sunday 25 Jan 2015 (Local Time) from KFOE Reporting Station
Broken Clouds Broken Clouds  
Wind Chill: 41°   Ceiling: 5500
Heat Index: 48°   Visibility: 10mi
Dew Point: 37°   Wind: 22mph
Humidity: 66%   Direction: 290°WNW
Pressure: 29.68"   Gusts: 28mph
Location:  38.86°N, 96.11°W
Report Text: KFOE 250953Z AUTO 29019G24KT 10SM SCT037 BKN055 09/03 A2968 RMK AO2 SLP048 T00890028
Loading
Personal Weather Stations






























Interactive Weather Map New forecast layout! Learn more

10-Day Weather Forecast

Advertisements
Track Severe Weather on mobile